TimePST,TemperatureF,Dew PointF,Humidity,Sea Level PressureIn,VisibilityMPH,Wind Direction,Wind SpeedMPH,Gust SpeedMPH,PrecipitationIn,Events,Conditions,WindDirDegrees,DateUTC
12:52 AM,54.0,32.0,43,30.06,-9999.0,Variable,4.6,-,N/A,,Unknown,0,2013-11-12 08:52:00
1:52 AM,54.0,30.9,41,30.05,-9999.0,NNE,5.8,-,N/A,,Unknown,20,2013-11-12 09:52:00
2:52 AM,43.0,30.0,60,30.06,-9999.0,NNE,5.8,-,N/A,,Unknown,30,2013-11-12 10:52:00
3:52 AM,57.0,30.0,36,30.05,-9999.0,ENE,11.5,-,N/A,,Unknown,60,2013-11-12 11:52:00
4:52 AM,60.1,28.0,30,30.07,-9999.0,NE,10.4,-,N/A,,Unknown,50,2013-11-12 12:52:00
5:52 AM,61.0,27.0,27,30.10,-9999.0,Calm,Calm,-,N/A,,Unknown,0,2013-11-12 13:52:00
6:52 AM,57.9,28.0,32,30.12,-9999.0,NE,8.1,-,N/A,,Unknown,50,2013-11-12 14:52:00
7:52 AM,73.0,30.0,20,30.12,-9999.0,ENE,9.2,-,N/A,,Unknown,70,2013-11-12 15:52:00
8:52 AM,77.0,28.9,17,30.12,-9999.0,ENE,15.0,-,N/A,,Unknown,70,2013-11-12 16:52:00
9:52 AM,79.0,28.9,16,30.11,-9999.0,East,16.1,20.7,N/A,,Unknown,80,2013-11-12 17:52:00
10:52 AM,80.1,28.9,15,30.10,-9999.0,ENE,16.1,20.7,N/A,,Unknown,70,2013-11-12 18:52:00
11:52 AM,81.0,30.0,16,30.07,-9999.0,ENE,13.8,-,N/A,,Unknown,70,2013-11-12 19:52:00
12:52 PM,81.0,30.0,16,30.05,-9999.0,East,10.4,-,N/A,,Unknown,80,2013-11-12 20:52:00
1:52 PM,79.0,28.0,15,30.03,-9999.0,ENE,12.7,-,N/A,,Unknown,70,2013-11-12 21:52:00
2:52 PM,77.0,26.1,15,30.05,-9999.0,ENE,12.7,-,N/A,,Unknown,70,2013-11-12 22:52:00
3:52 PM,75.0,26.1,16,30.02,-9999.0,East,9.2,-,N/A,,Unknown,80,2013-11-12 23:52:00
4:52 PM,73.0,26.1,17,30.04,-9999.0,Calm,Calm,-,N/A,,Unknown,0,2013-11-13 00:52:00
5:52 PM,64.9,30.0,27,30.06,-9999.0,NE,4.6,-,N/A,,Unknown,50,2013-11-13 01:52:00
6:52 PM,64.0,28.9,27,30.06,-9999.0,North,3.5,-,N/A,,Unknown,10,2013-11-13 02:52:00
7:52 PM,64.9,28.0,25,30.05,-9999.0,NNE,4.6,-,N/A,,Unknown,20,2013-11-13 03:52:00
8:52 PM,63.0,26.1,25,30.06,-9999.0,NE,8.1,-,N/A,,Unknown,40,2013-11-13 04:52:00
9:52 PM,61.0,25.0,25,30.05,-9999.0,NNE,4.6,-,N/A,,Unknown,30,2013-11-13 05:52:00
10:52 PM,50.0,27.0,41,30.06,-9999.0,NNE,4.6,-,N/A,,Unknown,30,2013-11-13 06:52:00
11:52 PM,48.9,26.1,41,30.05,-9999.0,NE,3.5,-,N/A,,Unknown,50,2013-11-13 07:52:00